sensor_id;sensor_type;location;lat;lon;timestamp;P1;durP1;ratioP1;P2;durP2;ratioP2
11835;SDS011;5977;51.972;7.640;2024-03-02T00:01:34;136.27;;;45.77;;
11835;SDS011;5977;51.972;7.640;2024-03-02T00:04:03;136.53;;;45.80;;
11835;SDS011;5977;51.972;7.640;2024-03-02T00:06:33;135.93;;;45.60;;
11835;SDS011;5977;51.972;7.640;2024-03-02T00:09:01;137.00;;;46.03;;
11835;SDS011;5977;51.972;7.640;2024-03-02T00:11:29;136.53;;;45.83;;
11835;SDS011;5977;51.972;7.640;2024-03-02T00:13:59;136.40;;;45.90;;
11835;SDS011;5977;51.972;7.640;2024-03-02T00:16:29;136.37;;;45.77;;
11835;SDS011;5977;51.972;7.640;2024-03-02T00:19:00;136.07;;;45.70;;
11835;SDS011;5977;51.972;7.640;2024-03-02T00:21:29;135.60;;;45.37;;
11835;SDS011;5977;51.972;7.640;2024-03-02T00:23:58;135.63;;;45.50;;
11835;SDS011;5977;51.972;7.640;2024-03-02T00:26:27;135.90;;;45.73;;
11835;SDS011;5977;51.972;7.640;2024-03-02T00:28:55;136.30;;;45.67;;
11835;SDS011;5977;51.972;7.640;2024-03-02T00:31:25;135.80;;;45.60;;
11835;SDS011;5977;51.972;7.640;2024-03-02T00:33:53;135.77;;;45.60;;
11835;SDS011;5977;51.972;7.640;2024-03-02T00:36:22;135.57;;;45.47;;
11835;SDS011;5977;51.972;7.640;2024-03-02T00:38:52;135.93;;;45.60;;
11835;SDS011;5977;51.972;7.640;2024-03-02T00:41:22;135.40;;;45.53;;
11835;SDS011;5977;51.972;7.640;2024-03-02T00:43:57;135.63;;;45.63;;
11835;SDS011;5977;51.972;7.640;2024-03-02T00:46:27;136.20;;;45.90;;
11835;SDS011;5977;51.972;7.640;2024-03-02T00:48:58;135.43;;;45.57;;
11835;SDS011;5977;51.972;7.640;2024-03-02T00:51:28;135.87;;;45.67;;
11835;SDS011;5977;51.972;7.640;2024-03-02T00:53:58;135.73;;;45.63;;
11835;SDS011;5977;51.972;7.640;2024-03-02T00:56:27;136.13;;;45.83;;
11835;SDS011;5977;51.972;7.640;2024-03-02T00:58:55;135.13;;;45.27;;
11835;SDS011;5977;51.972;7.640;2024-03-02T01:01:24;135.80;;;45.60;;
11835;SDS011;5977;51.972;7.640;2024-03-02T01:03:53;135.90;;;45.60;;
11835;SDS011;5977;51.972;7.640;2024-03-02T01:06:21;135.07;;;45.30;;
11835;SDS011;5977;51.972;7.640;2024-03-02T01:08:50;135.63;;;45.60;;
11835;SDS011;5977;51.972;7.640;2024-03-02T01:11:19;135.23;;;45.53;;
11835;SDS011;5977;51.972;7.640;2024-03-02T01:13:48;135.37;;;45.53;;
11835;SDS011;5977;51.972;7.640;2024-03-02T01:16:16;135.60;;;45.43;;
11835;SDS011;5977;51.972;7.640;2024-03-02T01:18:44;135.03;;;45.27;;
11835;SDS011;5977;51.972;7.640;2024-03-02T01:21:13;135.03;;;45.27;;
11835;SDS011;5977;51.972;7.640;2024-03-02T01:23:41;135.37;;;45.43;;
11835;SDS011;5977;51.972;7.640;2024-03-02T01:26:10;135.23;;;45.40;;
11835;SDS011;5977;51.972;7.640;2024-03-02T01:28:37;135.17;;;45.30;;
11835;SDS011;5977;51.972;7.640;2024-03-02T01:31:05;135.53;;;45.50;;
11835;SDS011;5977;51.972;7.640;2024-03-02T01:33:33;135.27;;;45.40;;
11835;SDS011;5977;51.972;7.640;2024-03-02T01:36:01;135.80;;;45.63;;
11835;SDS011;5977;51.972;7.640;2024-03-02T01:38:31;135.73;;;45.63;;
11835;SDS011;5977;51.972;7.640;2024-03-02T01:41:00;136.07;;;45.80;;
11835;SDS011;5977;51.972;7.640;2024-03-02T01:43:28;134.97;;;45.40;;
11835;SDS011;5977;51.972;7.640;2024-03-02T01:45:56;135.27;;;45.30;;
11835;SDS011;5977;51.972;7.640;2024-03-02T01:48:25;135.80;;;45.60;;
11835;SDS011;5977;51.972;7.640;2024-03-02T01:50:52;135.73;;;45.70;;
11835;SDS011;5977;51.972;7.640;2024-03-02T01:53:21;135.80;;;45.60;;
11835;SDS011;5977;51.972;7.640;2024-03-02T01:55:51;135.47;;;45.50;;
11835;SDS011;5977;51.972;7.640;2024-03-02T01:58:19;134.87;;;45.30;;
11835;SDS011;5977;51.972;7.640;2024-03-02T02:00:46;135.03;;;45.37;;
11835;SDS011;5977;51.972;7.640;2024-03-02T02:03:16;135.57;;;45.47;;
11835;SDS011;5977;51.972;7.640;2024-03-02T02:05:44;135.23;;;45.47;;
11835;SDS011;5977;51.972;7.640;2024-03-02T02:08:14;135.73;;;45.60;;
11835;SDS011;5977;51.972;7.640;2024-03-02T02:10:42;135.47;;;45.47;;
11835;SDS011;5977;51.972;7.640;2024-03-02T02:13:11;135.60;;;45.57;;
11835;SDS011;5977;51.972;7.640;2024-03-02T02:15:39;135.23;;;45.50;;
11835;SDS011;5977;51.972;7.640;2024-03-02T02:18:07;135.30;;;45.40;;
11835;SDS011;5977;51.972;7.640;2024-03-02T02:20:35;134.93;;;45.20;;
11835;SDS011;5977;51.972;7.640;2024-03-02T02:23:04;135.03;;;45.30;;
11835;SDS011;5977;51.972;7.640;2024-03-02T02:25:34;134.87;;;45.30;;
11835;SDS011;5977;51.972;7.640;2024-03-02T02:28:02;134.93;;;45.37;;
11835;SDS011;5977;51.972;7.640;2024-03-02T02:30:30;134.83;;;45.23;;
11835;SDS011;5977;51.972;7.640;2024-03-02T02:33:00;135.77;;;45.70;;
11835;SDS011;5977;51.972;7.640;2024-03-02T02:35:28;134.97;;;45.43;;
11835;SDS011;5977;51.972;7.640;2024-03-02T02:37:56;135.30;;;45.40;;
11835;SDS011;5977;51.972;7.640;2024-03-02T02:40:26;135.47;;;45.50;;
11835;SDS011;5977;51.972;7.640;2024-03-02T02:42:55;134.90;;;45.30;;
11835;SDS011;5977;51.972;7.640;2024-03-02T02:45:23;135.10;;;45.40;;
11835;SDS011;5977;51.972;7.640;2024-03-02T02:47:51;135.00;;;45.30;;
11835;SDS011;5977;51.972;7.640;2024-03-02T02:50:19;135.33;;;45.50;;
11835;SDS011;5977;51.972;7.640;2024-03-02T02:52:47;135.73;;;45.63;;
11835;SDS011;5977;51.972;7.640;2024-03-02T02:55:16;135.10;;;45.30;;
11835;SDS011;5977;51.972;7.640;2024-03-02T02:57:45;135.43;;;45.50;;
11835;SDS011;5977;51.972;7.640;2024-03-02T03:00:14;135.37;;;45.57;;
11835;SDS011;5977;51.972;7.640;2024-03-02T03:02:45;134.83;;;45.17;;
11835;SDS011;5977;51.972;7.640;2024-03-02T03:05:15;135.10;;;45.30;;
11835;SDS011;5977;51.972;7.640;2024-03-02T03:07:43;135.73;;;45.60;;
11835;SDS011;5977;51.972;7.640;2024-03-02T03:10:12;135.17;;;45.40;;
11835;SDS011;5977;51.972;7.640;2024-03-02T03:12:41;135.40;;;45.57;;
11835;SDS011;5977;51.972;7.640;2024-03-02T03:15:12;135.33;;;45.37;;
11835;SDS011;5977;51.972;7.640;2024-03-02T03:17:40;135.37;;;45.57;;
11835;SDS011;5977;51.972;7.640;2024-03-02T03:20:08;135.27;;;45.50;;
11835;SDS011;5977;51.972;7.640;2024-03-02T03:22:36;134.67;;;45.20;;
11835;SDS011;5977;51.972;7.640;2024-03-02T03:25:05;135.50;;;45.60;;
11835;SDS011;5977;51.972;7.640;2024-03-02T03:27:34;134.97;;;45.40;;
11835;SDS011;5977;51.972;7.640;2024-03-02T03:30:03;135.13;;;45.50;;
11835;SDS011;5977;51.972;7.640;2024-03-02T03:32:33;135.37;;;45.57;;
11835;SDS011;5977;51.972;7.640;2024-03-02T03:35:01;134.80;;;45.20;;
11835;SDS011;5977;51.972;7.640;2024-03-02T03:37:30;135.27;;;45.43;;
11835;SDS011;5977;51.972;7.640;2024-03-02T03:40:01;135.13;;;45.50;;
11835;SDS011;5977;51.972;7.640;2024-03-02T03:42:33;134.77;;;45.30;;
11835;SDS011;5977;51.972;7.640;2024-03-02T03:45:01;135.13;;;45.40;;
11835;SDS011;5977;51.972;7.640;2024-03-02T03:47:30;134.37;;;45.10;;
11835;SDS011;5977;51.972;7.640;2024-03-02T03:50:00;135.10;;;45.50;;
11835;SDS011;5977;51.972;7.640;2024-03-02T03:52:29;135.20;;;45.40;;
11835;SDS011;5977;51.972;7.640;2024-03-02T03:54:57;135.70;;;45.63;;
11835;SDS011;5977;51.972;7.640;2024-03-02T03:57:25;135.07;;;45.50;;
11835;SDS011;5977;51.972;7.640;2024-03-02T03:59:53;134.83;;;45.27;;
11835;SDS011;5977;51.972;7.640;2024-03-02T04:02:21;135.00;;;45.40;;
11835;SDS011;5977;51.972;7.640;2024-03-02T04:04:50;135.07;;;45.40;;
11835;SDS011;5977;51.972;7.640;2024-03-02T04:07:20;134.87;;;45.27;;
11835;SDS011;5977;51.972;7.640;2024-03-02T04:09:48;134.67;;;45.33;;
11835;SDS011;5977;51.972;7.640;2024-03-02T04:12:16;134.93;;;45.40;;
11835;SDS011;5977;51.972;7.640;2024-03-02T04:14:44;134.77;;;45.30;;
11835;SDS011;5977;51.972;7.640;2024-03-02T04:17:11;134.43;;;45.10;;
11835;SDS011;5977;51.972;7.640;2024-03-02T04:19:39;134.17;;;45.00;;
11835;SDS011;5977;51.972;7.640;2024-03-02T04:22:07;135.13;;;45.50;;
11835;SDS011;5977;51.972;7.640;2024-03-02T04:24:48;134.77;;;45.23;;
11835;SDS011;5977;51.972;7.640;2024-03-02T04:27:15;135.27;;;45.80;;
11835;SDS011;5977;51.972;7.640;2024-03-02T04:29:43;135.03;;;45.40;;
11835;SDS011;5977;51.972;7.640;2024-03-02T04:32:11;134.97;;;45.30;;
11835;SDS011;5977;51.972;7.640;2024-03-02T04:34:39;135.37;;;45.53;;
11835;SDS011;5977;51.972;7.640;2024-03-02T04:37:07;135.17;;;45.50;;
11835;SDS011;5977;51.972;7.640;2024-03-02T04:39:35;135.37;;;45.70;;
11835;SDS011;5977;51.972;7.640;2024-03-02T04:42:05;134.90;;;45.33;;
11835;SDS011;5977;51.972;7.640;2024-03-02T04:44:33;134.90;;;45.30;;
11835;SDS011;5977;51.972;7.640;2024-03-02T04:47:00;134.77;;;45.30;;
11835;SDS011;5977;51.972;7.640;2024-03-02T04:49:28;134.73;;;45.27;;
11835;SDS011;5977;51.972;7.640;2024-03-02T04:51:57;134.67;;;45.33;;
11835;SDS011;5977;51.972;7.640;2024-03-02T04:54:25;134.73;;;45.30;;
11835;SDS011;5977;51.972;7.640;2024-03-02T04:56:53;134.77;;;45.37;;
11835;SDS011;5977;51.972;7.640;2024-03-02T04:59:22;135.13;;;45.50;;
11835;SDS011;5977;51.972;7.640;2024-03-02T05:01:50;134.67;;;45.20;;
11835;SDS011;5977;51.972;7.640;2024-03-02T05:04:18;134.87;;;45.30;;
11835;SDS011;5977;51.972;7.640;2024-03-02T05:06:46;134.13;;;45.10;;
11835;SDS011;5977;51.972;7.640;2024-03-02T05:09:19;135.10;;;45.60;;
11835;SDS011;5977;51.972;7.640;2024-03-02T05:11:47;134.50;;;45.30;;
11835;SDS011;5977;51.972;7.640;2024-03-02T05:14:39;134.83;;;45.40;;
11835;SDS011;5977;51.972;7.640;2024-03-02T05:17:06;134.80;;;45.37;;
11835;SDS011;5977;51.972;7.640;2024-03-02T05:19:34;134.40;;;45.30;;
11835;SDS011;5977;51.972;7.640;2024-03-02T05:22:02;134.33;;;45.20;;
11835;SDS011;5977;51.972;7.640;2024-03-02T05:24:30;134.57;;;45.30;;
11835;SDS011;5977;51.972;7.640;2024-03-02T05:26:58;134.17;;;45.10;;
11835;SDS011;5977;51.972;7.640;2024-03-02T05:29:26;135.00;;;45.73;;
11835;SDS011;5977;51.972;7.640;2024-03-02T05:31:55;135.00;;;45.50;;
11835;SDS011;5977;51.972;7.640;2024-03-02T05:34:23;134.70;;;45.37;;
11835;SDS011;5977;51.972;7.640;2024-03-02T05:36:51;134.50;;;45.30;;
11835;SDS011;5977;51.972;7.640;2024-03-02T05:39:19;134.97;;;45.50;;
11835;SDS011;5977;51.972;7.640;2024-03-02T05:41:47;134.53;;;45.30;;
11835;SDS011;5977;51.972;7.640;2024-03-02T05:44:15;134.67;;;45.30;;
11835;SDS011;5977;51.972;7.640;2024-03-02T05:46:44;134.97;;;45.40;;
11835;SDS011;5977;51.972;7.640;2024-03-02T05:49:14;134.80;;;45.40;;
11835;SDS011;5977;51.972;7.640;2024-03-02T05:51:41;134.60;;;45.33;;
11835;SDS011;5977;51.972;7.640;2024-03-02T05:54:09;134.47;;;45.40;;
11835;SDS011;5977;51.972;7.640;2024-03-02T05:56:37;134.50;;;45.27;;
11835;SDS011;5977;51.972;7.640;2024-03-02T05:59:05;134.60;;;45.27;;
11835;SDS011;5977;51.972;7.640;2024-03-02T06:01:39;134.53;;;45.23;;
11835;SDS011;5977;51.972;7.640;2024-03-02T06:04:07;134.83;;;45.40;;
11835;SDS011;5977;51.972;7.640;2024-03-02T06:06:38;134.30;;;45.20;;
11835;SDS011;5977;51.972;7.640;2024-03-02T06:09:06;134.40;;;45.20;;
11835;SDS011;5977;51.972;7.640;2024-03-02T06:11:35;134.37;;;45.23;;
11835;SDS011;5977;51.972;7.640;2024-03-02T06:14:03;134.83;;;45.33;;
11835;SDS011;5977;51.972;7.640;2024-03-02T06:16:32;134.53;;;45.30;;
11835;SDS011;5977;51.972;7.640;2024-03-02T06:19:00;134.33;;;45.10;;
11835;SDS011;5977;51.972;7.640;2024-03-02T06:21:29;134.83;;;45.40;;
11835;SDS011;5977;51.972;7.640;2024-03-02T06:23:58;133.93;;;45.13;;
11835;SDS011;5977;51.972;7.640;2024-03-02T06:26:27;134.47;;;45.40;;
11835;SDS011;5977;51.972;7.640;2024-03-02T06:28:56;134.33;;;45.30;;
11835;SDS011;5977;51.972;7.640;2024-03-02T06:31:23;134.47;;;45.37;;
11835;SDS011;5977;51.972;7.640;2024-03-02T06:33:51;133.90;;;45.10;;
11835;SDS011;5977;51.972;7.640;2024-03-02T06:36:19;134.37;;;45.37;;
11835;SDS011;5977;51.972;7.640;2024-03-02T06:38:47;134.43;;;45.20;;
11835;SDS011;5977;51.972;7.640;2024-03-02T06:41:16;134.80;;;45.50;;
11835;SDS011;5977;51.972;7.640;2024-03-02T06:43:44;134.70;;;45.30;;
11835;SDS011;5977;51.972;7.640;2024-03-02T06:46:12;134.53;;;45.33;;
11835;SDS011;5977;51.972;7.640;2024-03-02T06:48:41;134.33;;;45.30;;
11835;SDS011;5977;51.972;7.640;2024-03-02T06:51:09;134.57;;;45.43;;
11835;SDS011;5977;51.972;7.640;2024-03-02T06:53:37;134.13;;;45.07;;
11835;SDS011;5977;51.972;7.640;2024-03-02T06:56:06;133.80;;;45.03;;
11835;SDS011;5977;51.972;7.640;2024-03-02T06:58:36;134.30;;;45.20;;
11835;SDS011;5977;51.972;7.640;2024-03-02T07:01:04;134.67;;;45.40;;
11835;SDS011;5977;51.972;7.640;2024-03-02T07:03:33;134.47;;;45.27;;
11835;SDS011;5977;51.972;7.640;2024-03-02T07:06:01;134.23;;;45.20;;
11835;SDS011;5977;51.972;7.640;2024-03-02T07:08:29;134.60;;;45.30;;
11835;SDS011;5977;51.972;7.640;2024-03-02T07:10:57;134.90;;;45.40;;
11835;SDS011;5977;51.972;7.640;2024-03-02T07:13:25;134.13;;;45.13;;
11835;SDS011;5977;51.972;7.640;2024-03-02T07:15:54;135.03;;;45.47;;
11835;SDS011;5977;51.972;7.640;2024-03-02T07:18:48;134.33;;;45.27;;
11835;SDS011;5977;51.972;7.640;2024-03-02T07:21:18;134.30;;;45.17;;
11835;SDS011;5977;51.972;7.640;2024-03-02T07:23:47;134.83;;;45.50;;
11835;SDS011;5977;51.972;7.640;2024-03-02T07:26:15;135.00;;;45.50;;
11835;SDS011;5977;51.972;7.640;2024-03-02T07:28:47;134.57;;;45.27;;
11835;SDS011;5977;51.972;7.640;2024-03-02T07:31:17;134.53;;;45.30;;
11835;SDS011;5977;51.972;7.640;2024-03-02T07:33:45;135.23;;;45.60;;
11835;SDS011;5977;51.972;7.640;2024-03-02T07:36:13;134.83;;;45.43;;
11835;SDS011;5977;51.972;7.640;2024-03-02T07:38:42;135.63;;;46.00;;
11835;SDS011;5977;51.972;7.640;2024-03-02T07:41:11;134.47;;;45.37;;
11835;SDS011;5977;51.972;7.640;2024-03-02T07:43:39;135.13;;;45.60;;
11835;SDS011;5977;51.972;7.640;2024-03-02T07:46:07;135.37;;;45.67;;
11835;SDS011;5977;51.972;7.640;2024-03-02T07:48:36;135.03;;;45.60;;
11835;SDS011;5977;51.972;7.640;2024-03-02T07:51:05;135.60;;;45.80;;
11835;SDS011;5977;51.972;7.640;2024-03-02T07:53:33;135.20;;;45.50;;
11835;SDS011;5977;51.972;7.640;2024-03-02T07:56:00;135.40;;;45.60;;
11835;SDS011;5977;51.972;7.640;2024-03-02T07:58:29;136.10;;;45.87;;
11835;SDS011;5977;51.972;7.640;2024-03-02T08:00:58;135.40;;;45.63;;
11835;SDS011;5977;51.972;7.640;2024-03-02T08:03:27;136.23;;;45.90;;
11835;SDS011;5977;51.972;7.640;2024-03-02T08:05:57;136.47;;;45.87;;
11835;SDS011;5977;51.972;7.640;2024-03-02T08:08:25;136.67;;;46.10;;
11835;SDS011;5977;51.972;7.640;2024-03-02T08:10:53;136.67;;;46.00;;
11835;SDS011;5977;51.972;7.640;2024-03-02T08:13:21;136.90;;;46.10;;
11835;SDS011;5977;51.972;7.640;2024-03-02T08:15:49;137.00;;;46.13;;
11835;SDS011;5977;51.972;7.640;2024-03-02T08:18:17;137.43;;;46.27;;
11835;SDS011;5977;51.972;7.640;2024-03-02T08:20:45;138.13;;;46.40;;
11835;SDS011;5977;51.972;7.640;2024-03-02T08:23:15;138.33;;;46.43;;
11835;SDS011;5977;51.972;7.640;2024-03-02T08:25:43;138.43;;;46.60;;
11835;SDS011;5977;51.972;7.640;2024-03-02T08:28:11;139.53;;;47.07;;
11835;SDS011;5977;51.972;7.640;2024-03-02T08:30:39;139.33;;;46.90;;
11835;SDS011;5977;51.972;7.640;2024-03-02T08:33:07;139.50;;;46.97;;
11835;SDS011;5977;51.972;7.640;2024-03-02T08:35:36;139.57;;;47.03;;
11835;SDS011;5977;51.972;7.640;2024-03-02T08:38:04;139.90;;;47.17;;
11835;SDS011;5977;51.972;7.640;2024-03-02T08:40:34;139.90;;;47.13;;
11835;SDS011;5977;51.972;7.640;2024-03-02T08:43:02;140.03;;;47.07;;
11835;SDS011;5977;51.972;7.640;2024-03-02T08:45:30;139.93;;;47.00;;
11835;SDS011;5977;51.972;7.640;2024-03-02T08:47:58;140.27;;;47.27;;
11835;SDS011;5977;51.972;7.640;2024-03-02T08:50:26;140.50;;;47.23;;
11835;SDS011;5977;51.972;7.640;2024-03-02T08:52:54;141.00;;;47.37;;
11835;SDS011;5977;51.972;7.640;2024-03-02T08:55:22;140.93;;;47.33;;
11835;SDS011;5977;51.972;7.640;2024-03-02T08:57:51;141.63;;;47.60;;
11835;SDS011;5977;51.972;7.640;2024-03-02T09:00:19;140.73;;;47.27;;
11835;SDS011;5977;51.972;7.640;2024-03-02T09:02:47;141.20;;;47.50;;
11835;SDS011;5977;51.972;7.640;2024-03-02T09:05:15;141.47;;;47.70;;
11835;SDS011;5977;51.972;7.640;2024-03-02T09:07:43;141.57;;;47.57;;
11835;SDS011;5977;51.972;7.640;2024-03-02T09:10:11;141.40;;;47.47;;
11835;SDS011;5977;51.972;7.640;2024-03-02T09:12:39;142.23;;;47.80;;
11835;SDS011;5977;51.972;7.640;2024-03-02T09:15:09;141.43;;;47.40;;
11835;SDS011;5977;51.972;7.640;2024-03-02T09:17:37;142.50;;;47.93;;
11835;SDS011;5977;51.972;7.640;2024-03-02T09:20:05;141.90;;;47.70;;
11835;SDS011;5977;51.972;7.640;2024-03-02T09:22:34;141.77;;;47.43;;
11835;SDS011;5977;51.972;7.640;2024-03-02T09:25:02;142.10;;;47.73;;
11835;SDS011;5977;51.972;7.640;2024-03-02T09:27:30;142.73;;;47.87;;
11835;SDS011;5977;51.972;7.640;2024-03-02T09:29:58;142.07;;;48.00;;
11835;SDS011;5977;51.972;7.640;2024-03-02T09:32:27;142.43;;;47.87;;
11835;SDS011;5977;51.972;7.640;2024-03-02T09:34:55;142.53;;;47.80;;
11835;SDS011;5977;51.972;7.640;2024-03-02T09:37:24;143.07;;;48.07;;
11835;SDS011;5977;51.972;7.640;2024-03-02T09:39:53;143.33;;;48.63;;
11835;SDS011;5977;51.972;7.640;2024-03-02T09:42:21;143.53;;;48.27;;
11835;SDS011;5977;51.972;7.640;2024-03-02T09:44:50;142.73;;;48.03;;
11835;SDS011;5977;51.972;7.640;2024-03-02T09:47:18;142.67;;;47.90;;
11835;SDS011;5977;51.972;7.640;2024-03-02T09:49:47;143.00;;;48.07;;
11835;SDS011;5977;51.972;7.640;2024-03-02T09:52:16;142.53;;;47.70;;
11835;SDS011;5977;51.972;7.640;2024-03-02T09:54:44;143.77;;;48.33;;
11835;SDS011;5977;51.972;7.640;2024-03-02T09:57:14;143.83;;;48.57;;
11835;SDS011;5977;51.972;7.640;2024-03-02T09:59:42;143.63;;;48.23;;
11835;SDS011;5977;51.972;7.640;2024-03-02T10:02:11;142.97;;;47.97;;
11835;SDS011;5977;51.972;7.640;2024-03-02T10:04:39;143.87;;;48.30;;
11835;SDS011;5977;51.972;7.640;2024-03-02T10:07:12;143.03;;;48.13;;
11835;SDS011;5977;51.972;7.640;2024-03-02T10:09:41;143.73;;;48.17;;
11835;SDS011;5977;51.972;7.640;2024-03-02T10:12:11;144.03;;;48.43;;
11835;SDS011;5977;51.972;7.640;2024-03-02T10:14:40;143.80;;;48.40;;
11835;SDS011;5977;51.972;7.640;2024-03-02T10:17:09;142.97;;;48.17;;
11835;SDS011;5977;51.972;7.640;2024-03-02T10:19:38;143.80;;;48.37;;
11835;SDS011;5977;51.972;7.640;2024-03-02T10:22:07;143.07;;;48.00;;
11835;SDS011;5977;51.972;7.640;2024-03-02T10:24:37;143.23;;;48.07;;
11835;SDS011;5977;51.972;7.640;2024-03-02T10:27:07;143.53;;;48.30;;
11835;SDS011;5977;51.972;7.640;2024-03-02T10:29:36;143.53;;;48.37;;
11835;SDS011;5977;51.972;7.640;2024-03-02T10:32:08;143.30;;;48.10;;
11835;SDS011;5977;51.972;7.640;2024-03-02T10:34:37;144.03;;;48.37;;
11835;SDS011;5977;51.972;7.640;2024-03-02T10:37:07;144.37;;;48.40;;
11835;SDS011;5977;51.972;7.640;2024-03-02T10:39:36;144.30;;;48.43;;
11835;SDS011;5977;51.972;7.640;2024-03-02T10:42:06;144.73;;;48.73;;
11835;SDS011;5977;51.972;7.640;2024-03-02T10:44:34;144.10;;;48.33;;
11835;SDS011;5977;51.972;7.640;2024-03-02T10:47:03;143.23;;;47.93;;
11835;SDS011;5977;51.972;7.640;2024-03-02T10:49:32;143.83;;;48.23;;
11835;SDS011;5977;51.972;7.640;2024-03-02T10:52:00;144.20;;;48.30;;
11835;SDS011;5977;51.972;7.640;2024-03-02T10:54:29;143.93;;;48.17;;
11835;SDS011;5977;51.972;7.640;2024-03-02T10:57:04;143.93;;;48.27;;
11835;SDS011;5977;51.972;7.640;2024-03-02T10:59:36;143.57;;;48.23;;
11835;SDS011;5977;51.972;7.640;2024-03-02T11:02:06;144.17;;;48.47;;
11835;SDS011;5977;51.972;7.640;2024-03-02T11:04:36;143.40;;;48.03;;
11835;SDS011;5977;51.972;7.640;2024-03-02T11:07:06;144.10;;;48.30;;
11835;SDS011;5977;51.972;7.640;2024-03-02T11:09:37;144.00;;;48.17;;
11835;SDS011;5977;51.972;7.640;2024-03-02T11:12:12;144.03;;;48.30;;
11835;SDS011;5977;51.972;7.640;2024-03-02T11:14:44;144.17;;;48.37;;
11835;SDS011;5977;51.972;7.640;2024-03-02T11:17:13;143.93;;;48.40;;
11835;SDS011;5977;51.972;7.640;2024-03-02T11:19:42;144.00;;;48.40;;
11835;SDS011;5977;51.972;7.640;2024-03-02T11:22:12;144.40;;;48.57;;
11835;SDS011;5977;51.972;7.640;2024-03-02T11:24:43;144.10;;;48.43;;
11835;SDS011;5977;51.972;7.640;2024-03-02T11:27:20;144.73;;;48.50;;
11835;SDS011;5977;51.972;7.640;2024-03-02T11:33:24;144.50;;;48.60;;
11835;SDS011;5977;51.972;7.640;2024-03-02T11:35:57;144.43;;;48.57;;
11835;SDS011;5977;51.972;7.640;2024-03-02T11:38:32;144.67;;;48.53;;
11835;SDS011;5977;51.972;7.640;2024-03-02T11:41:01;144.87;;;48.70;;
11835;SDS011;5977;51.972;7.640;2024-03-02T11:43:34;144.07;;;48.23;;
11835;SDS011;5977;51.972;7.640;2024-03-02T11:46:05;144.60;;;48.57;;
11835;SDS011;5977;51.972;7.640;2024-03-02T11:48:35;144.17;;;48.00;;
11835;SDS011;5977;51.972;7.640;2024-03-02T11:51:04;145.03;;;48.57;;
11835;SDS011;5977;51.972;7.640;2024-03-02T11:53:31;144.03;;;48.27;;
11835;SDS011;5977;51.972;7.640;2024-03-02T11:56:02;145.03;;;48.60;;
11835;SDS011;5977;51.972;7.640;2024-03-02T11:58:34;145.10;;;48.77;;
11835;SDS011;5977;51.972;7.640;2024-03-02T12:01:04;144.53;;;48.43;;
11835;SDS011;5977;51.972;7.640;2024-03-02T12:03:33;145.10;;;48.67;;
11835;SDS011;5977;51.972;7.640;2024-03-02T12:06:02;144.50;;;48.40;;
11835;SDS011;5977;51.972;7.640;2024-03-02T12:08:30;145.07;;;48.53;;
11835;SDS011;5977;51.972;7.640;2024-03-02T12:11:00;144.10;;;48.00;;
11835;SDS011;5977;51.972;7.640;2024-03-02T12:13:30;144.23;;;48.33;;
11835;SDS011;5977;51.972;7.640;2024-03-02T12:16:00;144.17;;;48.27;;
11835;SDS011;5977;51.972;7.640;2024-03-02T12:18:29;144.97;;;48.50;;
11835;SDS011;5977;51.972;7.640;2024-03-02T12:20:56;144.63;;;48.47;;
11835;SDS011;5977;51.972;7.640;2024-03-02T12:23:25;144.17;;;48.23;;
11835;SDS011;5977;51.972;7.640;2024-03-02T12:25:53;143.87;;;47.97;;
11835;SDS011;5977;51.972;7.640;2024-03-02T12:28:21;144.67;;;48.23;;
11835;SDS011;5977;51.972;7.640;2024-03-02T12:30:49;144.13;;;48.07;;
11835;SDS011;5977;51.972;7.640;2024-03-02T12:33:19;145.13;;;48.67;;
11835;SDS011;5977;51.972;7.640;2024-03-02T12:35:48;144.10;;;48.13;;
11835;SDS011;5977;51.972;7.640;2024-03-02T12:38:16;145.17;;;48.53;;
11835;SDS011;5977;51.972;7.640;2024-03-02T12:40:44;144.47;;;48.37;;
11835;SDS011;5977;51.972;7.640;2024-03-02T12:43:14;144.97;;;48.60;;
11835;SDS011;5977;51.972;7.640;2024-03-02T12:45:42;145.17;;;48.47;;
11835;SDS011;5977;51.972;7.640;2024-03-02T12:48:10;144.70;;;48.30;;
11835;SDS011;5977;51.972;7.640;2024-03-02T12:50:42;144.57;;;48.27;;
11835;SDS011;5977;51.972;7.640;2024-03-02T12:53:13;145.17;;;48.63;;
11835;SDS011;5977;51.972;7.640;2024-03-02T12:55:42;145.37;;;48.70;;
11835;SDS011;5977;51.972;7.640;2024-03-02T12:58:16;145.37;;;48.70;;
11835;SDS011;5977;51.972;7.640;2024-03-02T13:00:44;145.57;;;48.73;;
11835;SDS011;5977;51.972;7.640;2024-03-02T13:03:12;145.00;;;48.60;;
11835;SDS011;5977;51.972;7.640;2024-03-02T13:05:43;144.83;;;48.47;;
11835;SDS011;5977;51.972;7.640;2024-03-02T13:08:16;145.67;;;48.77;;
11835;SDS011;5977;51.972;7.640;2024-03-02T13:10:44;145.20;;;48.57;;
11835;SDS011;5977;51.972;7.640;2024-03-02T13:13:12;145.50;;;48.60;;
11835;SDS011;5977;51.972;7.640;2024-03-02T13:15:41;143.90;;;47.90;;
11835;SDS011;5977;51.972;7.640;2024-03-02T13:18:09;145.23;;;48.50;;
11835;SDS011;5977;51.972;7.640;2024-03-02T13:20:38;145.23;;;48.43;;
11835;SDS011;5977;51.972;7.640;2024-03-02T13:23:07;145.53;;;48.73;;
11835;SDS011;5977;51.972;7.640;2024-03-02T13:25:36;145.20;;;48.70;;
11835;SDS011;5977;51.972;7.640;2024-03-02T13:28:04;145.00;;;48.40;;
11835;SDS011;5977;51.972;7.640;2024-03-02T13:30:33;145.77;;;48.73;;
11835;SDS011;5977;51.972;7.640;2024-03-02T13:33:01;145.07;;;48.37;;
11835;SDS011;5977;51.972;7.640;2024-03-02T13:35:29;145.37;;;48.60;;
11835;SDS011;5977;51.972;7.640;2024-03-02T13:37:57;143.97;;;47.93;;
11835;SDS011;5977;51.972;7.640;2024-03-02T13:40:26;145.33;;;48.43;;
11835;SDS011;5977;51.972;7.640;2024-03-02T13:42:55;145.53;;;48.53;;
11835;SDS011;5977;51.972;7.640;2024-03-02T13:45:23;145.47;;;48.97;;
11835;SDS011;5977;51.972;7.640;2024-03-02T13:47:51;145.60;;;48.73;;
11835;SDS011;5977;51.972;7.640;2024-03-02T13:50:19;144.87;;;48.20;;
11835;SDS011;5977;51.972;7.640;2024-03-02T13:52:47;145.17;;;48.47;;
11835;SDS011;5977;51.972;7.640;2024-03-02T13:55:15;145.07;;;48.43;;
11835;SDS011;5977;51.972;7.640;2024-03-02T13:57:44;144.57;;;48.17;;
11835;SDS011;5977;51.972;7.640;2024-03-02T14:00:14;145.27;;;48.80;;
11835;SDS011;5977;51.972;7.640;2024-03-02T14:02:43;144.93;;;48.30;;
11835;SDS011;5977;51.972;7.640;2024-03-02T14:05:12;144.70;;;48.13;;
11835;SDS011;5977;51.972;7.640;2024-03-02T14:07:40;144.33;;;48.07;;
11835;SDS011;5977;51.972;7.640;2024-03-02T14:10:09;144.63;;;48.23;;
11835;SDS011;5977;51.972;7.640;2024-03-02T14:12:37;144.53;;;48.23;;
11835;SDS011;5977;51.972;7.640;2024-03-02T14:15:07;144.47;;;48.17;;
11835;SDS011;5977;51.972;7.640;2024-03-02T14:17:35;145.13;;;48.40;;
11835;SDS011;5977;51.972;7.640;2024-03-02T14:20:03;145.43;;;48.70;;
11835;SDS011;5977;51.972;7.640;2024-03-02T14:22:33;145.07;;;48.37;;
11835;SDS011;5977;51.972;7.640;2024-03-02T14:25:03;144.83;;;48.30;;
11835;SDS011;5977;51.972;7.640;2024-03-02T14:27:32;144.70;;;48.17;;
11835;SDS011;5977;51.972;7.640;2024-03-02T14:30:23;144.50;;;48.20;;
11835;SDS011;5977;51.972;7.640;2024-03-02T14:32:51;144.63;;;48.10;;
11835;SDS011;5977;51.972;7.640;2024-03-02T14:35:19;144.50;;;48.17;;